Time;durP1;ratioP1;P1;durP2;ratioP2;P2;SDS_P1;SDS_P2;PMS_P1;PMS_P2;Temp;Humidity;BMP_temperature;BMP_pressure;BME280_temperature;BME280_humidity;BME280_pressure;Samples;Min_cycle;Max_cycle;Signal;HPM_P1;HPM_P2
2023/03/16 00:00:47;;;;;;;9.23;5.22;;;;;;;;;;5007258;28;20041;-58
2023/03/16 00:03:20;;;;;;;7.55;5.00;;;;;;;;;;5005820;28;20034;-56
2023/03/16 00:05:49;;;;;;;8.55;4.65;;;;;;;;;;5005848;28;20089;-57
2023/03/16 00:08:16;;;;;;;10.23;5.35;;;;;;;;;;5004451;28;20042;-58
2023/03/16 00:10:45;;;;;;;11.68;5.20;;;;;;;;;;5006773;28;20041;-58
2023/03/16 00:13:14;;;;;;;11.40;5.40;;;;;;;;;;5006811;28;20037;-57
2023/03/16 00:15:40;;;;;;;13.38;6.07;;;;;;;;;;5005289;28;20048;-57
2023/03/16 00:18:07;;;;;;;9.95;6.07;;;;;;;;;;5006236;28;20054;-57
2023/03/16 00:20:33;;;;;;;10.30;6.15;;;;;;;;;;5004824;28;20057;-59
2023/03/16 00:23:01;;;;;;;12.32;5.60;;;;;;;;;;5006227;28;20026;-57
2023/03/16 00:25:27;;;;;;;9.60;5.47;;;;;;;;;;5007639;28;20500;-58
2023/03/16 00:27:53;;;;;;;10.13;5.55;;;;;;;;;;5007841;28;20030;-58
2023/03/16 00:30:20;;;;;;;11.57;5.47;;;;;;;;;;5007113;28;20049;-57
2023/03/16 00:32:46;;;;;;;9.43;4.95;;;;;;;;;;5005630;28;20053;-57
2023/03/16 00:35:12;;;;;;;9.10;5.65;;;;;;;;;;5006747;28;20053;-58
2023/03/16 00:37:38;;;;;;;9.45;5.50;;;;;;;;;;5004632;28;20030;-57
2023/03/16 00:40:06;;;;;;;8.18;5.35;;;;;;;;;;5005749;28;20565;-59
2023/03/16 00:42:33;;;;;;;11.18;5.90;;;;;;;;;;5005194;28;20526;-57
2023/03/16 00:45:00;;;;;;;8.93;5.43;;;;;;;;;;5005175;28;20045;-57
2023/03/16 00:47:30;;;;;;;9.23;5.35;;;;;;;;;;5005110;28;20193;-57
2023/03/16 00:49:57;;;;;;;10.38;6.28;;;;;;;;;;5002968;28;20033;-57
2023/03/16 00:52:24;;;;;;;8.88;5.43;;;;;;;;;;5006361;28;20041;-58
2023/03/16 00:54:53;;;;;;;13.30;6.10;;;;;;;;;;5006658;28;20037;-57
2023/03/16 00:57:21;;;;;;;9.77;5.32;;;;;;;;;;5006796;28;20411;-57
2023/03/16 00:59:47;;;;;;;10.68;5.75;;;;;;;;;;5008773;28;20049;-58
2023/03/16 01:02:16;;;;;;;11.52;6.10;;;;;;;;;;5008136;28;20025;-58
2023/03/16 01:04:42;;;;;;;11.50;6.05;;;;;;;;;;5009218;28;20034;-59
2023/03/16 01:07:11;;;;;;;15.18;7.20;;;;;;;;;;5007804;28;20063;-58
2023/03/16 01:09:41;;;;;;;15.23;7.30;;;;;;;;;;5008150;28;20047;-57
2023/03/16 01:12:09;;;;;;;;;;;;;;;;;;4993719;28;20068;-57
2023/03/16 01:14:36;;;;;;;17.63;8.52;;;;;;;;;;5008869;28;19920;-57
2023/03/16 01:17:04;;;;;;;21.20;9.95;;;;;;;;;;5007319;28;20037;-58
2023/03/16 01:19:32;;;;;;;21.85;10.63;;;;;;;;;;5009337;28;20052;-58
2023/03/16 01:21:59;;;;;;;27.90;11.88;;;;;;;;;;5006951;28;20365;-58
2023/03/16 01:24:25;;;;;;;24.95;11.60;;;;;;;;;;5008665;28;20068;-57
2023/03/16 01:26:51;;;;;;;28.30;12.80;;;;;;;;;;5009315;28;20030;-58
2023/03/16 01:29:17;;;;;;;33.13;13.48;;;;;;;;;;5007441;28;20053;-58
2023/03/16 01:31:44;;;;;;;29.55;12.20;;;;;;;;;;5008721;28;20484;-58
2023/03/16 01:34:15;;;;;;;29.42;13.57;;;;;;;;;;5008058;28;20037;-58
2023/03/16 01:36:45;;;;;;;34.38;12.80;;;;;;;;;;4992440;28;20037;-57
2023/03/16 01:39:13;;;;;;;34.30;13.88;;;;;;;;;;5006951;28;20526;-58
2023/03/16 01:41:45;;;;;;;34.20;14.35;;;;;;;;;;5006066;28;20037;-57
2023/03/16 01:44:14;;;;;;;39.55;15.20;;;;;;;;;;5007329;28;20435;-57
2023/03/16 01:46:43;;;;;;;38.33;14.43;;;;;;;;;;5007022;28;20045;-58
2023/03/16 01:49:41;;;;;;;40.60;16.00;;;;;;;;;;5007179;28;20049;-58
2023/03/16 01:52:13;;;;;;;38.42;15.50;;;;;;;;;;4990925;28;20037;-57
2023/03/16 01:54:45;;;;;;;36.28;14.50;;;;;;;;;;5006231;28;20029;-57
2023/03/16 01:57:22;;;;;;;38.75;15.15;;;;;;;;;;5008598;28;20045;-58
2023/03/16 01:59:53;;;;;;;39.35;15.23;;;;;;;;;;5005916;28;20403;-57
2023/03/16 02:02:28;;;;;;;39.38;14.15;;;;;;;;;;5007535;28;21456;-58
2023/03/16 02:05:41;;;;;;;39.47;15.38;;;;;;;;;;5004833;28;20049;-58
2023/03/16 02:08:09;;;;;;;39.22;16.25;;;;;;;;;;4996763;28;20061;-58
2023/03/16 02:10:36;;;;;;;39.50;13.93;;;;;;;;;;5006885;28;20029;-57
2023/03/16 02:13:03;;;;;;;39.05;15.10;;;;;;;;;;4992138;28;20038;-57
2023/03/16 02:15:29;;;;;;;41.17;15.70;;;;;;;;;;5005784;28;20038;-57
2023/03/16 02:17:58;;;;;;;39.75;14.68;;;;;;;;;;5004370;28;20050;-58
2023/03/16 02:20:38;;;;;;;37.65;15.30;;;;;;;;;;4991281;28;20034;-58
2023/03/16 02:23:07;;;;;;;39.65;14.15;;;;;;;;;;5007172;28;20033;-58
2023/03/16 02:25:56;;;;;;;43.03;15.90;;;;;;;;;;5007310;28;20049;-57
2023/03/16 02:28:47;;;;;;;40.05;15.88;;;;;;;;;;5006014;28;20046;-59
2023/03/16 02:31:15;;;;;;;45.17;16.80;;;;;;;;;;5006870;28;20116;-58
2023/03/16 02:33:43;;;;;;;38.67;15.43;;;;;;;;;;5007249;28;20604;-58
2023/03/16 02:36:13;;;;;;;47.65;15.85;;;;;;;;;;5006771;28;20045;-58
2023/03/16 02:38:40;;;;;;;41.63;14.85;;;;;;;;;;5006499;28;20041;-58
2023/03/16 02:41:16;;;;;;;39.92;14.98;;;;;;;;;;5007289;28;20034;-56
2023/03/16 02:43:57;;;;;;;42.35;15.02;;;;;;;;;;5006661;28;20046;-58
2023/03/16 02:46:34;;;;;;;42.75;15.75;;;;;;;;;;5007506;28;20038;-59
2023/03/16 02:49:07;;;;;;;37.50;13.77;;;;;;;;;;5035507;28;20053;-58
2023/03/16 02:51:33;;;;;;;40.13;14.30;;;;;;;;;;5004717;28;20053;-58
2023/03/16 02:54:00;;;;;;;43.38;15.77;;;;;;;;;;5006742;28;20105;-58
2023/03/16 02:56:28;;;;;;;50.83;18.02;;;;;;;;;;5006675;28;20026;-58
2023/03/16 02:58:56;;;;;;;48.60;16.90;;;;;;;;;;5006170;28;20048;-57
2023/03/16 03:01:23;;;;;;;48.53;18.10;;;;;;;;;;5004556;28;20042;-58
2023/03/16 03:03:49;;;;;;;41.38;16.50;;;;;;;;;;5006634;28;20764;-58
2023/03/16 03:06:15;;;;;;;47.45;15.57;;;;;;;;;;4989305;28;20049;-57
2023/03/16 03:08:41;;;;;;;45.17;16.70;;;;;;;;;;4990108;28;20638;-57
2023/03/16 03:11:08;;;;;;;46.67;16.88;;;;;;;;;;5006266;28;20034;-58
2023/03/16 03:13:38;;;;;;;42.33;16.23;;;;;;;;;;5006810;28;20408;-57
2023/03/16 03:16:05;;;;;;;48.85;17.67;;;;;;;;;;5006509;28;20045;-58
2023/03/16 03:18:31;;;;;;;47.15;16.52;;;;;;;;;;5004673;28;20049;-57
2023/03/16 03:20:57;;;;;;;44.83;16.52;;;;;;;;;;5003831;28;20415;-58
2023/03/16 03:23:24;;;;;;;45.40;16.02;;;;;;;;;;5006883;28;20041;-57
2023/03/16 03:25:50;;;;;;;45.05;16.50;;;;;;;;;;5006793;28;20038;-58
2023/03/16 03:28:17;;;;;;;44.55;16.00;;;;;;;;;;5006680;28;20434;-57
2023/03/16 03:30:44;;;;;;;46.03;17.05;;;;;;;;;;5006719;28;20041;-58
2023/03/16 03:33:10;;;;;;;43.45;16.45;;;;;;;;;;5008963;28;20522;-58
2023/03/16 03:35:36;;;;;;;41.70;16.30;;;;;;;;;;5005200;28;20038;-58
2023/03/16 03:38:02;;;;;;;41.33;15.73;;;;;;;;;;5005366;28;20446;-57
2023/03/16 03:40:29;;;;;;;40.58;16.90;;;;;;;;;;5004696;28;20038;-58
2023/03/16 03:42:58;;;;;;;38.90;14.27;;;;;;;;;;5006949;28;20041;-58
2023/03/16 03:45:24;;;;;;;35.08;13.75;;;;;;;;;;5002634;28;20045;-57
2023/03/16 03:47:51;;;;;;;34.95;13.10;;;;;;;;;;5006659;28;20034;-58
2023/03/16 03:50:20;;;;;;;33.10;13.65;;;;;;;;;;5004953;28;20045;-57
2023/03/16 03:53:16;;;;;;;42.20;14.02;;;;;;;;;;5008260;28;20056;-57
2023/03/16 03:56:02;;;;;;;39.05;13.75;;;;;;;;;;5006574;28;20021;-58
2023/03/16 03:58:29;;;;;;;33.53;12.65;;;;;;;;;;5005459;28;20039;-57
2023/03/16 04:00:55;;;;;;;30.55;12.20;;;;;;;;;;5005042;28;20050;-58
2023/03/16 04:03:21;;;;;;;23.55;11.00;;;;;;;;;;5004827;28;20546;-57
2023/03/16 04:05:47;;;;;;;22.38;10.32;;;;;;;;;;5005262;28;20057;-57
2023/03/16 04:08:13;;;;;;;26.55;11.07;;;;;;;;;;5005893;28;20034;-56
2023/03/16 04:10:40;;;;;;;26.27;10.35;;;;;;;;;;5004041;28;20514;-57
2023/03/16 04:13:06;;;;;;;22.77;10.05;;;;;;;;;;5006299;28;20060;-57
2023/03/16 04:15:37;;;;;;;24.15;8.93;;;;;;;;;;5004735;28;20653;-57
2023/03/16 04:18:22;;;;;;;23.02;9.85;;;;;;;;;;5006310;28;20048;-57
2023/03/16 04:20:48;;;;;;;21.23;9.13;;;;;;;;;;5003020;28;20061;-58
2023/03/16 04:23:20;;;;;;;20.60;9.43;;;;;;;;;;5006080;28;20037;-58
2023/03/16 04:25:48;;;;;;;21.98;9.73;;;;;;;;;;4989271;28;20095;-57
2023/03/16 04:28:17;;;;;;;21.33;9.10;;;;;;;;;;5006367;28;20038;-58
2023/03/16 04:30:44;;;;;;;21.48;10.13;;;;;;;;;;5004514;28;20034;-58
2023/03/16 04:33:32;;;;;;;25.25;10.10;;;;;;;;;;5004302;28;20045;-59
2023/03/16 04:36:01;;;;;;;22.25;9.70;;;;;;;;;;5006515;28;20052;-58
2023/03/16 04:38:29;;;;;;;23.63;9.70;;;;;;;;;;5005884;28;20045;-56
2023/03/16 04:40:59;;;;;;;24.52;10.13;;;;;;;;;;5005118;28;20507;-58
2023/03/16 04:43:33;;;;;;;29.00;11.13;;;;;;;;;;5004825;28;20046;-57
2023/03/16 04:46:05;;;;;;;31.25;9.73;;;;;;;;;;5004766;28;20144;-57
2023/03/16 04:48:32;;;;;;;27.38;9.98;;;;;;;;;;5004086;28;20034;-58
2023/03/16 04:51:00;;;;;;;28.73;10.00;;;;;;;;;;5004834;28;20021;-58
2023/03/16 04:53:30;;;;;;;22.70;8.95;;;;;;;;;;5003707;28;20030;-58
2023/03/16 04:56:01;;;;;;;27.45;8.77;;;;;;;;;;5030242;28;20499;-58
2023/03/16 04:58:27;;;;;;;19.60;8.13;;;;;;;;;;5005089;28;20034;-58
2023/03/16 05:00:54;;;;;;;17.50;7.00;;;;;;;;;;5004757;28;20053;-57
2023/03/16 05:03:25;;;;;;;16.70;7.45;;;;;;;;;;5007532;28;20050;-58
2023/03/16 05:05:51;;;;;;;16.30;7.10;;;;;;;;;;5005390;28;20443;-59
2023/03/16 05:08:17;;;;;;;15.32;7.82;;;;;;;;;;5004323;28;20034;-58
2023/03/16 05:10:47;;;;;;;16.90;7.25;;;;;;;;;;5002970;28;20038;-58
2023/03/16 05:13:14;;;;;;;18.83;8.05;;;;;;;;;;4987240;28;20050;-58
2023/03/16 05:15:41;;;;;;;15.35;7.75;;;;;;;;;;5003424;28;20496;-58
2023/03/16 05:18:20;;;;;;;17.10;7.50;;;;;;;;;;5002981;28;20491;-58
2023/03/16 05:20:52;;;;;;;19.90;7.72;;;;;;;;;;4988664;28;20042;-58
2023/03/16 05:23:19;;;;;;;18.50;7.78;;;;;;;;;;5005021;28;20482;-58
2023/03/16 05:25:49;;;;;;;14.98;7.00;;;;;;;;;;5005147;28;20065;-58
2023/03/16 05:28:18;;;;;;;16.35;7.50;;;;;;;;;;5004325;28;20038;-56
2023/03/16 05:30:56;;;;;;;17.42;7.05;;;;;;;;;;5002969;28;20042;-57
2023/03/16 05:33:25;;;;;;;15.70;7.22;;;;;;;;;;5006513;28;20042;-58
2023/03/16 05:35:58;;;;;;;17.50;7.78;;;;;;;;;;5006006;28;20029;-57
2023/03/16 05:38:26;;;;;;;18.27;6.93;;;;;;;;;;5002264;28;20029;-60
2023/03/16 05:40:56;;;;;;;17.10;7.22;;;;;;;;;;5003406;28;20038;-57
2023/03/16 05:43:44;;;;;;;17.98;7.55;;;;;;;;;;5007154;28;20042;-57
2023/03/16 05:46:11;;;;;;;16.15;7.25;;;;;;;;;;5007425;28;20427;-57
2023/03/16 05:48:37;;;;;;;19.88;7.88;;;;;;;;;;5005069;28;20046;-62
2023/03/16 05:51:05;;;;;;;16.00;6.97;;;;;;;;;;5009418;28;20416;-60
2023/03/16 05:53:32;;;;;;;21.10;7.75;;;;;;;;;;4993639;28;20407;-61
2023/03/16 05:56:06;;;;;;;17.95;7.47;;;;;;;;;;5042908;28;20050;-60
2023/03/16 05:58:35;;;;;;;18.88;7.63;;;;;;;;;;5008613;28;20036;-60
2023/03/16 06:01:08;;;;;;;16.42;7.03;;;;;;;;;;5009095;28;20117;-60
2023/03/16 06:03:34;;;;;;;16.35;6.97;;;;;;;;;;5009039;28;20049;-60
2023/03/16 06:06:00;;;;;;;17.63;7.35;;;;;;;;;;5007447;28;20029;-59
2023/03/16 06:08:31;;;;;;;18.02;7.43;;;;;;;;;;5024578;28;20038;-59
2023/03/16 06:11:05;;;;;;;21.08;8.10;;;;;;;;;;5009182;28;20038;-61
2023/03/16 06:13:32;;;;;;;17.33;7.97;;;;;;;;;;5009789;28;20415;-61
2023/03/16 06:15:58;;;;;;;16.27;7.13;;;;;;;;;;5002293;28;20041;-60
2023/03/16 06:18:24;;;;;;;17.88;7.63;;;;;;;;;;5003484;28;20407;-60
2023/03/16 06:20:50;;;;;;;22.08;8.05;;;;;;;;;;5008489;28;20037;-60
2023/03/16 06:23:19;;;;;;;22.25;8.77;;;;;;;;;;5009101;28;20415;-60
2023/03/16 06:25:47;;;;;;;17.10;7.63;;;;;;;;;;5008301;28;20478;-60
2023/03/16 06:28:13;;;;;;;14.77;7.13;;;;;;;;;;5007523;28;20046;-60
2023/03/16 06:30:40;;;;;;;16.00;7.72;;;;;;;;;;5006341;28;20060;-60
2023/03/16 06:33:06;;;;;;;18.65;7.40;;;;;;;;;;5007273;28;20494;-61
2023/03/16 06:35:33;;;;;;;18.10;8.15;;;;;;;;;;5005288;28;20046;-59
2023/03/16 06:38:10;;;;;;;16.95;7.30;;;;;;;;;;5006240;28;20048;-60
2023/03/16 06:41:02;;;;;;;19.00;7.40;;;;;;;;;;5004765;28;20053;-61
2023/03/16 06:43:32;;;;;;;17.57;7.57;;;;;;;;;;5006806;28;20041;-60
2023/03/16 06:45:58;;;;;;;18.63;7.55;;;;;;;;;;5008716;28;20049;-61
2023/03/16 06:48:24;;;;;;;19.13;7.60;;;;;;;;;;5006716;28;20439;-60
2023/03/16 06:50:51;;;;;;;21.02;7.95;;;;;;;;;;5007081;28;20042;-60
2023/03/16 06:53:21;;;;;;;18.05;7.32;;;;;;;;;;5006797;28;20559;-60
2023/03/16 06:55:48;;;;;;;18.70;7.50;;;;;;;;;;5008065;28;20523;-60
2023/03/16 06:58:14;;;;;;;18.38;7.50;;;;;;;;;;5007642;28;20037;-61
2023/03/16 07:00:41;;;;;;;17.90;7.32;;;;;;;;;;5006876;28;20045;-60
2023/03/16 07:03:07;;;;;;;17.05;6.88;;;;;;;;;;5007882;28;20049;-61
2023/03/16 07:05:35;;;;;;;13.65;7.22;;;;;;;;;;5007976;28;20492;-61
2023/03/16 07:08:03;;;;;;;17.27;7.32;;;;;;;;;;5007552;28;20034;-61
2023/03/16 07:10:30;;;;;;;16.50;7.43;;;;;;;;;;5006137;28;20057;-60
2023/03/16 07:12:56;;;;;;;15.20;7.28;;;;;;;;;;5003242;28;20050;-61
2023/03/16 07:15:25;;;;;;;18.35;7.80;;;;;;;;;;5007899;28;20046;-60
2023/03/16 07:17:52;;;;;;;19.80;8.00;;;;;;;;;;5007701;28;20045;-61
2023/03/16 07:20:19;;;;;;;17.38;7.57;;;;;;;;;;5007564;28;20046;-60
2023/03/16 07:22:45;;;;;;;16.23;7.32;;;;;;;;;;5009133;28;20061;-61
2023/03/16 07:25:13;;;;;;;17.40;7.55;;;;;;;;;;5008269;28;20038;-62
2023/03/16 07:27:46;;;;;;;17.05;7.25;;;;;;;;;;5007185;28;20514;-60
2023/03/16 07:30:16;;;;;;;17.13;7.10;;;;;;;;;;5005183;28;20040;-60
2023/03/16 07:32:45;;;;;;;20.10;8.45;;;;;;;;;;5006131;28;20065;-60
2023/03/16 07:35:11;;;;;;;23.42;8.45;;;;;;;;;;4990839;28;20049;-60
2023/03/16 07:37:38;;;;;;;16.40;7.65;;;;;;;;;;5005949;28;20050;-60
2023/03/16 07:40:08;;;;;;;19.58;7.97;;;;;;;;;;5003784;28;20034;-60
2023/03/16 07:42:35;;;;;;;13.57;6.60;;;;;;;;;;5001365;28;20277;-62
2023/03/16 07:45:16;;;;;;;19.40;8.38;;;;;;;;;;5004473;28;20041;-63
2023/03/16 07:47:44;;;;;;;15.70;7.07;;;;;;;;;;5016516;28;20038;-61
2023/03/16 07:50:37;;;;;;;15.82;7.53;;;;;;;;;;5005683;28;20046;-61
2023/03/16 07:53:04;;;;;;;21.02;8.07;;;;;;;;;;5005518;28;20046;-63
2023/03/16 07:55:30;;;;;;;17.55;8.15;;;;;;;;;;5005781;28;20514;-61
2023/03/16 07:57:57;;;;;;;16.08;8.00;;;;;;;;;;5004540;28;20026;-60
2023/03/16 08:00:29;;;;;;;16.67;7.50;;;;;;;;;;5005285;28;20037;-60
2023/03/16 08:02:56;;;;;;;18.58;8.43;;;;;;;;;;5004402;28;20423;-61
2023/03/16 08:05:23;;;;;;;20.65;8.52;;;;;;;;;;5004959;28;20050;-60
2023/03/16 08:07:55;;;;;;;20.92;8.57;;;;;;;;;;5002075;28;20029;-61
2023/03/16 08:10:23;;;;;;;21.60;8.93;;;;;;;;;;5004756;28;20033;-61
2023/03/16 08:12:57;;;;;;;19.58;8.02;;;;;;;;;;5005435;28;20487;-61
2023/03/16 08:15:23;;;;;;;20.23;8.05;;;;;;;;;;5005315;28;20049;-61
2023/03/16 08:17:55;;;;;;;18.50;8.18;;;;;;;;;;5004845;28;20045;-61
2023/03/16 08:20:24;;;;;;;19.83;8.88;;;;;;;;;;5005050;28;20041;-61
2023/03/16 08:22:52;;;;;;;20.23;8.40;;;;;;;;;;5005882;28;20046;-61
2023/03/16 08:25:23;;;;;;;17.13;8.07;;;;;;;;;;5005503;28;20429;-61
2023/03/16 08:28:01;;;;;;;19.48;7.63;;;;;;;;;;5005462;28;20048;-62
2023/03/16 08:30:29;;;;;;;17.00;7.22;;;;;;;;;;5002748;28;20041;-61
2023/03/16 08:33:21;;;;;;;17.98;7.50;;;;;;;;;;4989518;28;20117;-61
2023/03/16 08:35:48;;;;;;;18.20;6.75;;;;;;;;;;5002760;28;20030;-61
2023/03/16 08:38:14;;;;;;;16.05;7.55;;;;;;;;;;5005200;28;20042;-61
2023/03/16 08:40:47;;;;;;;17.55;7.72;;;;;;;;;;5001956;28;20046;-61
2023/03/16 08:43:18;;;;;;;15.40;6.90;;;;;;;;;;5002873;28;20049;-61
2023/03/16 08:45:45;;;;;;;16.70;7.95;;;;;;;;;;5003581;28;20504;-62
2023/03/16 08:48:14;;;;;;;18.05;6.40;;;;;;;;;;5004651;28;20403;-61
2023/03/16 08:50:43;;;;;;;15.10;6.65;;;;;;;;;;5004509;28;20507;-60
2023/03/16 08:53:12;;;;;;;15.02;7.10;;;;;;;;;;5005852;28;20045;-61
2023/03/16 08:55:40;;;;;;;19.70;6.73;;;;;;;;;;5006944;28;20050;-60
2023/03/16 08:58:08;;;;;;;16.83;6.95;;;;;;;;;;5006463;28;20288;-61
2023/03/16 09:00:34;;;;;;;17.58;7.22;;;;;;;;;;5004755;28;20117;-61
2023/03/16 09:03:01;;;;;;;20.55;6.90;;;;;;;;;;5005353;28;20044;-61
2023/03/16 09:05:28;;;;;;;15.30;6.72;;;;;;;;;;5006930;28;20814;-60
2023/03/16 09:07:55;;;;;;;13.50;6.72;;;;;;;;;;5005332;28;20050;-61
2023/03/16 09:10:22;;;;;;;11.82;6.20;;;;;;;;;;5004293;28;20045;-61
2023/03/16 09:12:49;;;;;;;15.10;6.30;;;;;;;;;;5003270;28;20048;-61
2023/03/16 09:15:15;;;;;;;14.50;6.38;;;;;;;;;;5007202;28;20053;-61
2023/03/16 09:17:43;;;;;;;15.05;5.63;;;;;;;;;;5005959;28;20423;-61
2023/03/16 09:20:11;;;;;;;14.35;4.93;;;;;;;;;;5008903;28;20067;-61
2023/03/16 09:22:37;;;;;;;13.27;4.95;;;;;;;;;;5009935;28;20034;-61
2023/03/16 09:25:05;;;;;;;10.15;5.40;;;;;;;;;;5009259;28;20029;-61
2023/03/16 09:27:32;;;;;;;12.75;5.88;;;;;;;;;;5010444;28;20070;-60
2023/03/16 09:29:59;;;;;;;13.20;4.90;;;;;;;;;;5010264;28;20061;-61
2023/03/16 09:32:27;;;;;;;13.07;5.10;;;;;;;;;;5009629;28;20395;-60
2023/03/16 09:34:53;;;;;;;10.10;4.70;;;;;;;;;;5011289;28;20120;-61
2023/03/16 09:37:20;;;;;;;8.57;4.43;;;;;;;;;;5008424;28;20046;-61
2023/03/16 09:39:48;;;;;;;11.15;4.88;;;;;;;;;;5007599;28;20436;-61
2023/03/16 09:42:43;;;;;;;12.77;5.20;;;;;;;;;;5007380;28;20443;-61
2023/03/16 09:45:40;;;;;;;9.13;4.70;;;;;;;;;;5008932;28;20042;-60
2023/03/16 09:48:09;;;;;;;10.85;4.63;;;;;;;;;;5003370;28;20074;-61
2023/03/16 09:50:39;;;;;;;11.00;5.35;;;;;;;;;;5008687;28;20061;-61
2023/03/16 09:53:28;;;;;;;14.82;5.80;;;;;;;;;;5008881;28;20030;-61
2023/03/16 09:56:00;;;;;;;10.03;4.90;;;;;;;;;;5007172;28;20030;-61
2023/03/16 09:58:27;;;;;;;10.73;4.88;;;;;;;;;;5008376;28;20041;-60
2023/03/16 10:01:18;;;;;;;8.40;4.25;;;;;;;;;;5007533;28;20053;-60
2023/03/16 10:03:47;;;;;;;7.22;4.63;;;;;;;;;;5007437;28;20301;-61
2023/03/16 10:06:15;;;;;;;;;;;;;;;;;;5007688;28;20510;-60
2023/03/16 10:08:53;;;;;;;8.32;4.80;;;;;;;;;;5007995;28;19934;-61
2023/03/16 10:11:23;;;;;;;8.32;5.25;;;;;;;;;;5006626;28;20038;-62
2023/03/16 10:13:49;;;;;;;10.88;5.40;;;;;;;;;;5006509;28;20381;-61
2023/03/16 10:16:20;;;;;;;10.77;5.32;;;;;;;;;;5006675;28;20033;-61
2023/03/16 10:18:49;;;;;;;9.85;5.07;;;;;;;;;;5005951;28;20030;-61
2023/03/16 10:21:18;;;;;;;9.70;5.60;;;;;;;;;;5008298;28;20030;-63
2023/03/16 10:23:46;;;;;;;10.02;5.47;;;;;;;;;;5004821;28;20060;-61
2023/03/16 10:26:17;;;;;;;11.10;5.90;;;;;;;;;;5007521;28;20104;-61
2023/03/16 10:28:45;;;;;;;9.90;5.78;;;;;;;;;;5007193;28;20053;-60
2023/03/16 10:31:12;;;;;;;12.88;6.30;;;;;;;;;;5005314;28;20049;-60
2023/03/16 10:33:39;;;;;;;12.70;5.60;;;;;;;;;;5005147;28;20041;-60
2023/03/16 10:36:30;;;;;;;13.02;6.20;;;;;;;;;;5007144;28;20056;-60
2023/03/16 10:39:00;;;;;;;10.23;5.45;;;;;;;;;;5007690;28;20057;-61
2023/03/16 10:41:30;;;;;;;13.50;5.85;;;;;;;;;;5005135;28;20060;-61
2023/03/16 10:44:08;;;;;;;11.82;6.07;;;;;;;;;;5007840;28;20042;-61
2023/03/16 10:46:47;;;;;;;6.47;3.97;;;;;;;;;;5004517;28;20423;-61
2023/03/16 10:49:27;;;;;;;10.95;5.22;;;;;;;;;;5007464;28;20038;-61
2023/03/16 10:52:01;;;;;;;10.15;5.28;;;;;;;;;;5006927;28;20045;-60
2023/03/16 10:54:38;;;;;;;11.18;5.32;;;;;;;;;;5004869;28;20072;-60
2023/03/16 10:57:32;;;;;;;9.73;4.38;;;;;;;;;;5006149;28;20046;-62
2023/03/16 11:00:14;;;;;;;8.43;4.60;;;;;;;;;;5005027;28;20037;-61
2023/03/16 11:02:41;;;;;;;7.07;4.00;;;;;;;;;;5005796;28;20518;-61
2023/03/16 11:05:12;;;;;;;10.63;4.57;;;;;;;;;;4988151;28;20037;-61
2023/03/16 11:07:38;;;;;;;7.30;4.60;;;;;;;;;;5006658;28;20042;-61
2023/03/16 11:10:27;;;;;;;9.88;4.80;;;;;;;;;;5005332;28;20042;-61
2023/03/16 11:12:54;;;;;;;8.38;5.22;;;;;;;;;;5006116;28;20061;-61
2023/03/16 11:15:20;;;;;;;10.50;4.28;;;;;;;;;;5005084;28;20534;-62
2023/03/16 11:17:51;;;;;;;7.38;4.15;;;;;;;;;;5006682;28;20029;-61
2023/03/16 11:20:29;;;;;;;7.45;4.88;;;;;;;;;;5005654;28;20034;-62
2023/03/16 11:22:57;;;;;;;8.15;4.15;;;;;;;;;;5006414;28;20041;-61
2023/03/16 11:25:29;;;;;;;7.50;4.18;;;;;;;;;;5007459;28;20054;-61
2023/03/16 11:28:03;;;;;;;8.65;4.63;;;;;;;;;;5003930;28;20049;-62
2023/03/16 11:30:40;;;;;;;8.07;4.22;;;;;;;;;;5004669;28;20053;-61
2023/03/16 11:33:09;;;;;;;7.63;3.90;;;;;;;;;;5006006;28;20034;-62
2023/03/16 11:35:35;;;;;;;9.07;4.68;;;;;;;;;;5034441;28;20053;-61
2023/03/16 11:38:08;;;;;;;5.45;3.63;;;;;;;;;;5007317;28;20044;-61
2023/03/16 11:40:59;;;;;;;10.85;4.18;;;;;;;;;;5005727;28;20029;-61
2023/03/16 11:43:56;;;;;;;7.47;4.03;;;;;;;;;;5005449;28;20078;-61
2023/03/16 11:46:48;;;;;;;5.10;3.42;;;;;;;;;;5005097;28;20042;-62
2023/03/16 11:49:36;;;;;;;8.23;3.67;;;;;;;;;;5007426;28;20065;-61
2023/03/16 11:52:11;;;;;;;6.28;3.70;;;;;;;;;;5008179;28;20037;-62
2023/03/16 11:54:51;;;;;;;10.05;3.70;;;;;;;;;;5007446;28;20050;-58
2023/03/16 11:57:26;;;;;;;;;;;;;;;;;;5008258;28;20053;-60
2023/03/16 12:00:12;;;;;;;4.78;3.35;;;;;;;;;;5005224;28;20027;-62
2023/03/16 12:02:48;;;;;;;4.45;3.10;;;;;;;;;;5008485;28;20419;-60
2023/03/16 12:05:53;;;;;;;5.68;3.13;;;;;;;;;;5007547;28;20411;-61
2023/03/16 12:08:46;;;;;;;11.60;4.60;;;;;;;;;;5006360;28;20038;-62
2023/03/16 12:11:30;;;;;;;4.53;3.33;;;;;;;;;;5006464;28;20034;-62
2023/03/16 12:14:23;;;;;;;6.50;3.67;;;;;;;;;;5006763;28;20034;-62
2023/03/16 12:17:01;;;;;;;4.85;3.15;;;;;;;;;;5007112;28;20034;-62
2023/03/16 12:19:49;;;;;;;5.25;3.45;;;;;;;;;;5006702;28;20630;-63
2023/03/16 12:22:31;;;;;;;5.03;3.20;;;;;;;;;;5006069;28;20495;-63
2023/03/16 12:24:57;;;;;;;5.35;3.50;;;;;;;;;;5003487;28;20064;-61
2023/03/16 12:27:32;;;;;;;6.35;3.65;;;;;;;;;;5005820;28;20046;-60
2023/03/16 12:30:07;;;;;;;7.50;3.10;;;;;;;;;;5006014;28;20049;-60
2023/03/16 12:32:46;;;;;;;7.00;3.45;;;;;;;;;;5006137;28;20378;-61
2023/03/16 12:35:43;;;;;;;5.47;2.92;;;;;;;;;;5004675;28;20073;-61
2023/03/16 12:38:27;;;;;;;4.10;2.80;;;;;;;;;;5005420;28;20042;-60
2023/03/16 12:41:02;;;;;;;8.68;3.85;;;;;;;;;;5009911;28;20048;-61
2023/03/16 12:43:46;;;;;;;8.27;3.63;;;;;;;;;;5005939;28;20038;-61
2023/03/16 12:46:18;;;;;;;5.45;3.50;;;;;;;;;;5008020;28;20041;-61
2023/03/16 12:48:55;;;;;;;5.03;3.20;;;;;;;;;;5006491;28;20038;-61
2023/03/16 12:51:35;;;;;;;5.00;3.17;;;;;;;;;;5005787;28;20036;-61
2023/03/16 12:54:03;;;;;;;5.85;3.45;;;;;;;;;;5011309;28;20082;-61
2023/03/16 12:56:32;;;;;;;5.35;2.97;;;;;;;;;;5009914;28;20043;-61
2023/03/16 12:59:04;;;;;;;5.88;3.45;;;;;;;;;;5010338;28;20034;-61
2023/03/16 13:01:41;;;;;;;5.05;3.13;;;;;;;;;;5010618;28;20053;-61
2023/03/16 13:04:19;;;;;;;8.10;3.45;;;;;;;;;;5011433;28;20645;-62
2023/03/16 13:06:59;;;;;;;6.28;3.53;;;;;;;;;;5008991;28;20062;-61
2023/03/16 13:09:30;;;;;;;7.88;4.15;;;;;;;;;;5006582;28;20060;-62
2023/03/16 13:11:58;;;;;;;7.20;3.92;;;;;;;;;;5013094;28;20049;-62
2023/03/16 13:14:39;;;;;;;6.32;4.03;;;;;;;;;;5009768;28;20042;-63
2023/03/16 13:17:15;;;;;;;6.82;3.67;;;;;;;;;;5009966;28;20073;-63
2023/03/16 13:19:45;;;;;;;8.00;3.33;;;;;;;;;;5009009;28;20403;-63
2023/03/16 13:22:28;;;;;;;4.10;3.30;;;;;;;;;;5010246;28;20041;-63
2023/03/16 13:25:10;;;;;;;6.70;3.30;;;;;;;;;;5009377;28;20515;-63
2023/03/16 13:27:39;;;;;;;4.93;3.40;;;;;;;;;;5008349;28;20507;-62
2023/03/16 13:30:20;;;;;;;4.20;3.05;;;;;;;;;;5009434;28;20042;-63
2023/03/16 13:32:48;;;;;;;6.10;3.47;;;;;;;;;;5009306;28;20030;-63
2023/03/16 13:35:16;;;;;;;6.68;3.92;;;;;;;;;;5009155;28;20434;-63
2023/03/16 13:37:43;;;;;;;5.07;3.03;;;;;;;;;;5008439;28;20044;-63
2023/03/16 13:40:44;;;;;;;4.85;3.20;;;;;;;;;;5017265;28;20033;-62
2023/03/16 13:43:21;;;;;;;5.22;3.25;;;;;;;;;;5008086;28;20052;-63
2023/03/16 13:45:47;;;;;;;3.20;2.90;;;;;;;;;;5011225;28;20030;-63
2023/03/16 13:48:16;;;;;;;5.15;3.50;;;;;;;;;;5010041;28;20038;-62
2023/03/16 13:50:43;;;;;;;5.60;3.13;;;;;;;;;;5010036;28;20173;-63
2023/03/16 13:53:23;;;;;;;4.30;3.20;;;;;;;;;;5008627;28;20038;-64
2023/03/16 13:55:51;;;;;;;6.20;3.30;;;;;;;;;;5009863;28;20049;-64
2023/03/16 13:58:45;;;;;;;5.25;4.05;;;;;;;;;;5010760;28;20467;-63
2023/03/16 14:01:19;;;;;;;5.90;3.70;;;;;;;;;;5009513;28;20400;-63
2023/03/16 14:03:47;;;;;;;4.95;3.20;;;;;;;;;;5010082;28;20443;-63
2023/03/16 14:06:29;;;;;;;5.00;3.53;;;;;;;;;;5008304;28;20535;-64
2023/03/16 14:09:14;;;;;;;5.70;3.85;;;;;;;;;;5009462;28;20041;-63
2023/03/16 14:11:41;;;;;;;6.00;4.38;;;;;;;;;;5004390;28;20054;-63
2023/03/16 14:14:17;;;;;;;4.78;3.80;;;;;;;;;;5009933;28;20048;-63
2023/03/16 14:16:44;;;;;;;6.15;3.70;;;;;;;;;;5008644;28;20037;-64
2023/03/16 14:19:23;;;;;;;6.78;4.28;;;;;;;;;;5008180;28;20037;-63
2023/03/16 14:21:50;;;;;;;5.63;4.03;;;;;;;;;;5005286;28;20061;-63
2023/03/16 14:24:30;;;;;;;8.50;4.15;;;;;;;;;;5009156;28;20487;-63
2023/03/16 14:26:57;;;;;;;5.97;3.78;;;;;;;;;;5036715;28;20033;-63
2023/03/16 14:29:29;;;;;;;5.22;3.60;;;;;;;;;;5008388;28;20034;-64
2023/03/16 14:31:57;;;;;;;7.13;3.85;;;;;;;;;;5005352;28;20553;-64
2023/03/16 14:34:28;;;;;;;5.75;4.00;;;;;;;;;;5008218;28;20678;-64
2023/03/16 14:37:05;;;;;;;5.63;4.20;;;;;;;;;;5009568;28;20054;-63
2023/03/16 14:39:32;;;;;;;5.95;4.18;;;;;;;;;;5006035;28;20026;-63
2023/03/16 14:42:01;;;;;;;5.68;4.03;;;;;;;;;;5008264;28;20072;-64
2023/03/16 14:44:31;;;;;;;6.05;3.70;;;;;;;;;;5010101;28;20059;-64
2023/03/16 14:46:59;;;;;;;6.35;4.10;;;;;;;;;;5009701;28;20030;-63
2023/03/16 14:49:37;;;;;;;4.72;3.50;;;;;;;;;;5015522;28;20060;-64
2023/03/16 14:52:26;;;;;;;6.57;4.25;;;;;;;;;;5008210;28;20049;-64
2023/03/16 14:54:54;;;;;;;6.10;3.90;;;;;;;;;;5004494;28;20041;-64
2023/03/16 14:57:21;;;;;;;10.35;4.32;;;;;;;;;;5036260;28;20042;-64
2023/03/16 14:59:47;;;;;;;6.85;4.43;;;;;;;;;;5008692;28;20053;-64